.
WxDataArchive / Data Records for 2007-02-09
2007-02-08 February 2007 2007-02-10

Data Records for Friday, 09 February 2007

Time	Temp	Chill	HIndex	Humid	Dewpt	 Wind 	HiWind	WindDir	Rain 	Barom 
-----	----	-----	------	-----	-----	------	------	-------	-----	----- 
00:00	2.2	2.2	2.2	66	-6.5	2	6	248	0.00	30.247 
00:05	2.2	2.2	2.2	66	-6.5	2	6	248	0.00	30.244 
00:10	2.2	2.2	2.2	66	-6.5	1	3	248	0.00	30.241 
00:15	2.2	2.2	2.2	66	-6.5	2	6	270	0.00	30.241 
00:20	2.2	2.2	2.2	66	-6.5	1	3	248	0.00	30.240 
00:25	2.2	2.2	2.2	66	-6.5	1	6	270	0.00	30.242 
00:30	2.2	2.2	2.2	66	-6.5	1	5	270	0.00	30.242 
00:35	2.2	2.2	2.2	66	-6.5	1	5	270	0.00	30.247 
00:40	2.4	2.4	2.4	66	-6.3	1	5	270	0.00	30.245 
00:45	2.4	2.4	2.4	66	-6.3	1	5	270	0.00	30.241 
00:50	2.4	2.4	2.4	66	-6.3	1	4	270	0.00	30.245 
00:55	2.2	2.2	2.2	66	-6.5	1	6	270	0.00	30.245 
01:00	2.2	2.2	2.2	66	-6.5	1	6	270	0.00	30.243 
01:05	2.2	2.2	2.2	66	-6.5	1	4	248	0.00	30.242 
01:10	2.2	2.2	2.2	66	-6.5	1	4	248	0.00	30.239 
01:15	2.2	2.2	2.2	66	-6.5	1	6	248	0.00	30.237 
01:20	2.0	2.0	2.0	66	-6.7	1	3	270	0.00	30.236 
01:25	2.0	2.0	2.0	66	-6.7	1	6	248	0.00	30.236 
01:30	2.0	2.0	2.0	66	-6.7	1	4	248	0.00	30.236 
01:35	1.8	1.8	1.8	66	-6.9	1	4	270	0.00	30.234 
01:40	1.8	1.8	1.8	66	-6.9	2	9	270	0.00	30.229 
01:45	1.8	1.8	1.8	66	-6.9	1	5	270	0.00	30.231 
01:50	1.8	1.8	1.8	66	-6.9	1	6	270	0.00	30.233 
01:55	1.8	1.8	1.8	66	-6.9	1	3	270	0.00	30.233 
02:00	1.8	1.8	1.8	66	-6.9	1	4	270	0.00	30.236 
02:05	1.8	1.8	1.8	66	-6.9	1	2	270	0.00	30.234 
02:10	1.8	1.8	1.8	66	-6.9	1	2	248	0.00	30.234 
02:15	1.8	1.8	1.8	66	-6.9	1	6	270	0.00	30.236 
02:20	1.8	1.8	1.8	66	-6.9	1	5	248	0.00	30.236 
02:25	1.8	1.8	1.8	66	-6.9	1	7	248	0.00	30.238 
02:30	1.7	1.7	1.7	66	-7.0	2	6	270	0.00	30.237 
02:35	1.7	1.7	1.7	66	-7.0	1	4	248	0.00	30.238 
02:40	1.7	1.7	1.7	66	-7.0	1	5	270	0.00	30.237 
02:45	1.7	1.7	1.7	66	-7.0	1	5	270	0.00	30.238 
02:50	1.7	1.7	1.7	66	-7.0	0	3	248	0.00	30.237 
02:55	1.5	1.5	1.5	66	-7.2	1	3	248	0.00	30.237 
03:00	1.5	1.5	1.5	66	-7.2	0	2	248	0.00	30.235 
03:05	1.5	1.5	1.5	66	-7.2	1	4	248	0.00	30.238 
03:10	1.3	1.3	1.3	66	-7.4	0	3	270	0.00	30.244 
03:15	1.3	1.3	1.3	66	-7.4	0	2	248	0.00	30.243 
03:20	1.3	1.3	1.3	66	-7.4	0	3	248	0.00	30.243 
03:25	1.3	1.3	1.3	66	-7.4	1	4	248	0.00	30.246 
03:30	1.3	1.3	1.3	66	-7.4	1	4	248	0.00	30.250 
03:35	1.3	1.3	1.3	66	-7.4	1	5	248	0.00	30.250 
03:40	1.1	1.1	1.1	66	-7.6	1	7	248	0.00	30.250 
03:45	1.1	1.1	1.1	65	-7.9	2	5	248	0.00	30.249 
03:50	1.1	1.1	1.1	65	-7.9	1	4	248	0.00	30.250 
03:55	1.1	1.1	1.1	65	-7.9	0	4	248	0.00	30.251 
04:00	1.1	1.1	1.1	66	-7.6	0	3	248	0.00	30.250 
04:05	1.1	1.1	1.1	66	-7.6	1	3	248	0.00	30.253 
04:10	1.1	1.1	1.1	66	-7.6	0	3	248	0.00	30.254 
04:15	1.1	1.1	1.1	65	-7.9	1	5	270	0.00	30.255 
04:20	0.9	0.9	0.9	65	-8.1	0	3	248	0.00	30.255 
04:25	0.9	0.9	0.9	66	-7.8	1	5	248	0.00	30.255 
04:30	0.9	0.9	0.9	66	-7.8	0	2	248	0.00	30.255 
04:35	0.9	0.9	0.9	66	-7.8	0	2	248	0.00	30.257 
04:40	0.9	0.9	0.9	66	-7.8	1	3	270	0.00	30.258 
04:45	0.9	0.9	0.9	66	-7.8	1	6	270	0.00	30.255 
04:50	0.9	0.9	0.9	66	-7.8	1	4	248	0.00	30.255 
04:55	0.7	0.7	0.7	66	-7.9	1	3	248	0.00	30.255 
05:00	0.7	0.7	0.7	66	-7.9	0	3	248	0.00	30.254 
05:05	0.7	0.7	0.7	66	-7.9	0	4	248	0.00	30.259 
05:10	0.5	0.5	0.5	66	-8.1	0	2	248	0.00	30.260 
05:15	0.5	0.5	0.5	67	-7.8	0	3	248	0.00	30.260 
05:20	0.5	0.5	0.5	67	-7.8	0	2	248	0.00	30.261 
05:25	0.5	0.5	0.5	67	-7.8	0	3	248	0.00	30.263 
05:30	0.3	0.3	0.3	67	-8.0	0	2	248	0.00	30.264 
05:35	0.3	0.3	0.3	67	-8.0	0	1	270	0.00	30.269 
05:40	0.3	0.3	0.3	67	-8.0	0	1	270	0.00	30.270 
05:45	0.3	0.3	0.3	67	-8.0	0	3	248	0.00	30.272 
05:50	0.3	0.3	0.3	67	-8.0	0	2	248	0.00	30.273 
05:55	0.1	0.1	0.1	68	-7.9	0	1	225	0.00	30.273 
06:00	0.1	0.1	0.1	68	-7.9	0	2	225	0.00	30.274 
06:05	0.3	0.3	0.3	68	-7.7	0	1	225	0.00	30.276 
06:10	0.3	0.3	0.3	68	-7.7	0	1	225	0.00	30.276 
06:15	0.3	0.3	0.3	68	-7.7	0	2	248	0.00	30.278 
06:20	0.3	0.3	0.3	68	-7.7	0	2	248	0.00	30.280 
06:25	0.3	0.3	0.3	68	-7.7	0	2	248	0.00	30.279 
06:30	0.5	0.5	0.5	68	-7.5	0	2	248	0.00	30.281 
06:35	0.5	0.5	0.5	68	-7.5	0	2	248	0.00	30.284 
06:40	0.5	0.5	0.5	68	-7.5	0	2	248	0.00	30.286 
06:45	0.5	0.5	0.5	68	-7.5	0	1	248	0.00	30.287 
06:50	0.5	0.5	0.5	68	-7.5	0	1	248	0.00	30.288 
06:55	0.5	0.5	0.5	68	-7.5	0	1	248	0.00	30.291 
07:00	0.3	0.3	0.3	68	-7.7	0	1	248	0.00	30.291 
07:05	0.3	0.3	0.3	68	-7.7	0	1	248	0.00	30.293 
07:10	0.1	0.1	0.1	68	-7.9	0	1	248	0.00	30.296 
07:15	0.1	0.1	0.1	69	-7.6	0	1	248	0.00	30.298 
07:20	0.1	0.1	0.1	69	-7.6	0	1	248	0.00	30.296 
07:25	0.1	0.1	0.1	69	-7.6	0	1	248	0.00	30.296 
07:30	0.3	0.3	0.3	69	-7.4	0	1	248	0.00	30.296 
07:35	0.5	0.5	0.5	70	-6.9	0	1	248	0.00	30.298 
07:40	0.7	0.7	0.7	70	-6.7	0	1	292	0.00	30.298 
07:45	1.1	1.1	1.1	70	-6.4	0	1	292	0.00	30.295 
07:50	1.3	1.3	1.3	70	-6.2	0	2	270	0.00	30.295 
07:55	1.7	1.7	1.7	69	-6.1	0	2	270	0.00	30.294 
08:00	1.8	1.8	1.8	69	-6.0	0	1	270	0.00	30.297 
08:05	2.2	2.2	2.2	69	-5.6	0	2	270	0.00	30.297 
08:10	2.4	2.4	2.4	69	-5.4	0	3	270	0.00	30.304 
08:15	2.6	2.6	2.6	69	-5.2	0	2	248	0.00	30.305 
08:20	2.8	2.8	2.8	69	-5.0	0	3	248	0.00	30.305 
08:25	3.0	3.0	3.0	69	-4.8	0	1	248	0.00	30.308 
08:30	3.2	3.2	3.2	68	-4.9	0	1	248	0.00	30.313 
08:35	3.2	3.2	3.2	68	-4.9	1	3	248	0.00	30.310 
08:40	3.4	3.4	3.4	68	-4.7	0	2	248	0.00	30.316 
08:45	3.7	3.7	3.7	68	-4.5	0	2	248	0.00	30.315 
08:50	3.9	3.9	3.9	67	-4.6	1	3	248	0.00	30.317 
08:55	3.9	3.9	3.9	67	-4.6	1	2	248	0.00	30.319 
09:00	4.1	4.1	4.1	66	-4.7	1	4	248	0.00	30.321 
09:05	4.1	4.1	4.1	66	-4.7	1	2	248	0.00	30.323 
09:10	4.5	4.5	4.5	65	-4.6	0	2	248	0.00	30.323 
09:15	4.8	4.8	4.8	66	-4.0	0	2	225	0.00	30.322 
09:20	5.0	5.0	5.0	65	-4.2	1	5	248	0.00	30.322 
09:25	5.2	5.2	5.2	65	-4.0	1	3	248	0.00	30.323 
09:30	5.6	5.6	5.6	65	-3.6	1	4	248	0.00	30.324 
09:35	5.8	5.8	5.8	65	-3.4	1	4	248	0.00	30.322 
09:40	6.3	6.3	6.3	65	-2.9	0	1	248	0.00	30.321 
09:45	6.9	6.9	6.9	64	-2.7	1	3	248	0.00	30.319 
09:50	7.0	7.0	7.0	63	-2.9	1	3	248	0.00	30.319 
09:55	7.2	7.2	7.2	62	-3.0	1	4	248	0.00	30.320 
10:00	7.6	7.6	7.6	63	-2.3	0	2	248	0.00	30.321 
10:05	7.9	7.9	7.9	63	-2.0	1	3	270	0.00	30.320 
10:10	8.3	8.3	8.3	63	-1.7	0	2	270	0.00	30.320 
10:15	8.4	8.4	8.4	62	-1.9	1	3	248	0.00	30.320 
10:20	8.8	8.8	8.8	62	-1.5	1	3	248	0.00	30.318 
10:25	9.2	9.2	9.2	62	-1.1	1	2	248	0.00	30.318 
10:30	10.0	10.0	10.0	62	-0.4	1	3	248	0.00	30.318 
10:35	10.5	10.5	10.5	61	-0.3	1	5	248	0.00	30.317 
10:40	10.7	10.7	10.7	60	-0.4	1	3	248	0.00	30.316 
10:45	11.1	11.1	11.1	60	-0.0	1	4	248	0.00	30.315 
10:50	11.4	11.4	11.4	61	0.6	1	3	248	0.00	30.315 
10:55	11.9	11.9	11.9	61	1.1	1	2	248	0.00	30.314 
11:00	12.3	12.3	12.3	60	1.1	1	3	248	0.00	30.314 
11:05	12.6	12.6	12.6	60	1.4	1	4	248	0.00	30.314 
11:10	13.1	13.1	13.1	61	2.2	0	2	248	0.00	30.314 
11:15	14.0	14.0	14.0	60	2.7	0	2	248	0.00	30.312 
11:20	14.4	14.4	14.4	59	2.7	1	3	248	0.00	30.311 
11:25	14.9	14.9	14.9	58	2.8	1	3	270	0.00	30.311 
11:30	15.1	15.1	15.1	58	3.0	1	4	248	0.00	30.313 
11:35	15.4	15.4	15.4	58	3.3	1	2	248	0.00	30.313 
11:40	15.7	15.7	15.7	58	3.6	1	3	248	0.00	30.311 
11:45	16.1	16.1	16.1	58	4.0	1	2	292	0.00	30.311 
11:50	16.4	16.4	16.4	59	4.6	1	3	248	0.00	30.311 
11:55	16.9	16.9	16.9	59	5.1	1	3	248	0.00	30.309 
12:00	17.2	17.2	17.2	59	5.4	1	2	248	0.00	30.307 
12:05	17.3	17.3	17.3	58	5.1	1	4	248	0.00	30.305 
12:10	17.8	17.8	17.8	57	5.2	1	5	248	0.00	30.296 
12:15	18.0	18.0	18.0	58	5.7	2	5	248	0.00	30.295 
12:20	18.1	18.1	18.1	58	5.8	2	6	248	0.00	30.294 
12:25	18.3	18.3	18.3	58	6.0	2	6	248	0.00	30.293 
12:30	18.6	18.6	18.6	58	6.3	1	3	292	0.00	30.291 
12:35	19.1	19.1	19.1	57	6.4	2	4	248	0.00	30.292 
12:40	19.2	19.2	19.2	55	5.7	2	5	248	0.00	30.290 
12:45	19.7	19.7	19.7	57	7.0	1	4	270	0.00	30.284 
12:50	19.9	19.9	19.9	57	7.2	1	4	248	0.00	30.281 
12:55	20.2	20.2	20.2	56	7.0	1	4	248	0.00	30.281 
13:00	20.5	20.5	20.5	57	7.7	2	4	248	0.00	30.279 
13:05	20.5	20.5	20.5	56	7.3	1	4	248	0.00	30.280 
13:10	20.6	20.6	20.6	57	7.8	1	3	270	0.00	30.278 
13:15	20.6	20.6	20.6	56	7.4	1	5	248	0.00	30.275 
13:20	20.6	20.6	20.6	57	7.8	1	3	315	0.00	30.274 
13:25	20.8	20.8	20.8	59	8.8	1	3	248	0.00	30.272 
13:30	20.8	20.8	20.8	59	8.8	1	4	292	0.00	30.268 
13:35	21.0	21.0	21.0	58	8.6	1	2	270	0.00	30.261 
13:40	21.0	21.0	21.0	59	9.0	1	3	270	0.00	30.258 
13:45	21.1	21.1	21.1	58	8.7	2	6	270	0.00	30.259 
13:50	21.4	21.4	21.4	58	8.9	1	3	248	0.00	30.259 
13:55	21.6	21.6	21.6	59	9.5	1	3	270	0.00	30.255 
14:00	21.4	21.4	21.4	58	8.9	1	3	292	0.00	30.254 
14:05	21.6	21.6	21.6	58	9.1	1	4	248	0.00	30.249 
14:10	21.6	21.6	21.6	58	9.1	1	4	270	0.00	30.247 
14:15	21.6	21.6	21.6	58	9.1	1	4	270	0.00	30.245 
14:20	21.8	21.8	21.8	59	9.7	2	4	270	0.00	30.243 
14:25	21.9	21.9	21.9	59	9.8	1	5	270	0.00	30.246 
14:30	21.6	21.6	21.6	59	9.5	2	4	270	0.00	30.246 
14:35	21.1	21.1	21.1	61	9.8	2	4	315	0.00	30.247 
14:40	21.1	21.1	21.1	62	10.1	2	5	270	0.00	30.245 
14:45	21.3	21.3	21.3	62	10.3	2	5	248	0.00	30.243 
14:50	21.3	21.3	21.3	61	10.0	2	5	248	0.00	30.241 
14:55	21.1	21.1	21.1	62	10.1	3	6	270	0.00	30.237 
15:00	21.0	21.0	21.0	62	10.1	2	9	270	0.00	30.237 
15:05	20.8	20.8	20.8	62	9.9	3	6	270	0.00	30.229 
15:10	21.0	21.0	21.0	62	10.1	2	6	248	0.00	30.229 
15:15	21.0	21.0	21.0	62	10.1	2	5	270	0.00	30.229 
15:20	20.8	20.8	20.8	62	9.9	3	7	248	0.00	30.227 
15:25	20.6	20.6	20.6	62	9.7	2	7	270	0.00	30.226 
15:30	20.8	20.8	20.8	63	10.2	2	6	248	0.00	30.224 
15:35	21.0	21.0	21.0	63	10.4	1	6	248	0.00	30.222 
15:40	20.8	20.8	20.8	63	10.2	2	6	248	0.00	30.223 
15:45	20.8	20.8	20.8	63	10.2	2	5	270	0.00	30.226 
15:50	21.0	21.0	21.0	63	10.4	1	3	248	0.00	30.226 
15:55	21.0	21.0	21.0	64	10.8	2	7	248	0.00	30.227 
16:00	21.0	21.0	21.0	63	10.4	2	7	248	0.00	30.228 
16:05	20.6	20.6	20.6	64	10.4	2	5	270	0.00	30.229 
16:10	20.6	20.6	20.6	64	10.4	2	7	248	0.00	30.228 
16:15	20.6	20.6	20.6	63	10.0	2	6	248	0.00	30.228 
16:20	20.6	20.6	20.6	64	10.4	2	6	248	0.00	30.228 
16:25	20.8	20.8	20.8	65	10.9	1	4	248	0.00	30.227 
16:30	21.3	21.3	21.3	63	10.7	2	6	248	0.00	30.227 
16:35	21.3	21.3	21.3	63	10.7	2	6	270	0.00	30.228 
16:40	21.1	21.1	21.1	64	10.9	1	3	270	0.00	30.228 
16:45	21.0	21.0	21.0	64	10.8	2	5	248	0.00	30.228 
16:50	20.8	20.8	20.8	64	10.6	2	5	270	0.00	30.228 
16:55	20.5	20.5	20.5	65	10.6	2	6	248	0.00	30.228 
17:00	20.5	20.5	20.5	65	10.6	2	6	248	0.00	30.228 
17:05	20.3	20.3	20.3	64	10.1	2	5	248	0.00	30.229 
17:10	20.2	20.2	20.2	65	10.3	1	4	225	0.00	30.230 
17:15	20.0	20.0	20.0	64	9.8	2	5	248	0.00	30.230 
17:20	19.7	19.7	19.7	64	9.5	2	6	248	0.00	30.229 
17:25	19.4	19.4	19.4	64	9.2	1	4	248	0.00	30.232 
17:30	19.1	19.1	19.1	64	9.0	1	6	270	0.00	30.233 
17:35	18.9	18.9	18.9	63	8.4	2	7	248	0.00	30.233 
17:40	18.6	18.6	18.6	63	8.1	1	5	248	0.00	30.233 
17:45	18.4	18.4	18.4	64	8.3	1	4	248	0.00	30.234 
17:50	18.1	18.1	18.1	63	7.7	2	11	248	0.00	30.235 
17:55	17.8	17.8	17.8	63	7.4	2	9	248	0.00	30.234 
18:00	17.3	17.3	17.3	63	6.9	2	6	270	0.00	30.236 
18:05	17.2	17.2	17.2	63	6.8	2	9	248	0.00	30.237 
18:10	16.7	16.7	16.7	63	6.3	2	6	270	0.00	30.236 
18:15	16.5	16.5	16.5	63	6.1	2	6	248	0.00	30.234 
18:20	16.2	16.2	16.2	63	5.9	3	10	248	0.00	30.236 
18:25	16.1	16.1	16.1	64	6.1	2	5	248	0.00	30.237 
18:30	15.7	15.7	15.7	64	5.7	2	10	270	0.00	30.236 
18:35	15.4	15.4	15.4	64	5.4	1	7	248	0.00	30.235 
18:40	15.2	15.2	15.2	64	5.2	1	5	248	0.00	30.237 
18:45	15.1	15.1	15.1	65	5.5	1	4	248	0.00	30.237 
18:50	14.9	14.9	14.9	65	5.3	1	6	248	0.00	30.235 
18:55	14.8	14.8	14.8	65	5.2	1	4	248	0.00	30.235 
19:00	14.8	14.8	14.8	65	5.2	1	4	248	0.00	30.234 
19:05	14.6	14.6	14.6	65	5.0	1	4	248	0.00	30.233 
19:10	14.6	14.6	14.6	65	5.0	1	5	248	0.00	30.233 
19:15	14.4	14.4	14.4	65	4.8	1	4	248	0.00	30.234 
19:20	14.3	14.3	14.3	65	4.7	1	6	248	0.00	30.234 
19:25	14.3	14.3	14.3	66	5.1	1	4	248	0.00	30.234 
19:30	14.1	14.1	14.1	66	4.9	1	4	248	0.00	30.234 
19:35	14.0	14.0	14.0	67	5.1	1	6	248	0.00	30.234 
19:40	14.0	14.0	14.0	67	5.1	2	10	248	0.00	30.234 
19:45	14.0	14.0	14.0	66	4.8	2	6	248	0.00	30.233 
19:50	13.8	13.8	13.8	66	4.6	1	4	248	0.00	30.232 
19:55	13.6	13.6	13.6	67	4.7	1	7	248	0.00	30.230 
20:00	13.5	13.5	13.5	67	4.6	1	4	248	0.00	30.229 
20:05	13.5	13.5	13.5	67	4.6	2	7	248	0.00	30.226 
20:10	13.5	13.5	13.5	67	4.6	2	7	248	0.00	30.222 
20:15	13.3	13.3	13.3	67	4.4	1	4	248	0.00	30.226 
20:20	13.1	13.1	13.1	66	3.9	1	5	248	0.00	30.227 
20:25	13.1	13.1	13.1	66	3.9	1	7	270	0.00	30.224 
20:30	12.9	12.9	12.9	66	3.7	1	5	248	0.00	30.222 
20:35	12.9	12.9	12.9	65	3.4	2	6	248	0.00	30.220 
20:40	12.8	12.8	12.8	65	3.3	1	6	248	0.00	30.218 
20:45	12.6	12.6	12.6	64	2.8	1	5	248	0.00	30.218 
20:50	12.6	12.6	12.6	64	2.8	2	11	248	0.00	30.217 
20:55	12.4	12.4	12.4	64	2.6	1	5	248	0.00	30.214 
21:00	12.3	12.3	12.3	63	2.1	2	6	248	0.00	30.209 
21:05	12.3	12.3	12.3	63	2.1	2	7	248	0.00	30.203 
21:10	12.1	12.1	12.1	63	2.0	2	7	248	0.00	30.202 
21:15	11.9	11.9	11.9	63	1.8	1	7	248	0.00	30.200 
21:20	11.7	11.7	11.7	63	1.6	2	6	248	0.00	30.199 
21:25	11.6	11.6	11.6	62	1.1	3	8	270	0.00	30.199 
21:30	11.4	11.4	11.4	62	0.9	2	7	248	0.00	30.198 
21:35	11.2	11.2	11.2	62	0.8	1	7	248	0.00	30.201 
21:40	11.1	11.1	11.1	62	0.7	1	5	248	0.00	30.202 
21:45	10.7	10.7	10.7	61	-0.1	1	6	270	0.00	30.201 
21:50	10.5	10.5	10.5	61	-0.3	1	7	248	0.00	30.200 
21:55	10.4	10.4	10.4	61	-0.3	1	6	270	0.00	30.198 
22:00	10.2	10.2	10.2	61	-0.5	2	9	270	0.00	30.198 
22:05	10.0	10.0	10.0	61	-0.7	1	5	248	0.00	30.191 
22:10	9.9	9.9	9.9	61	-0.8	1	5	248	0.00	30.192 
22:15	9.7	9.7	9.7	62	-0.7	1	4	248	0.00	30.189 
22:20	9.5	9.5	9.5	62	-0.9	1	7	248	0.00	30.188 
22:25	9.3	9.3	9.3	62	-1.0	1	6	248	0.00	30.186 
22:30	9.2	9.2	9.2	62	-1.1	1	5	248	0.00	30.191 
22:35	9.0	9.0	9.0	62	-1.3	0	2	248	0.00	30.191 
22:40	8.8	8.8	8.8	63	-1.2	1	6	248	0.00	30.192 
22:45	8.6	8.6	8.6	63	-1.4	1	6	248	0.00	30.189 
22:50	8.4	8.4	8.4	63	-1.6	1	4	248	0.00	30.188 
22:55	8.3	8.3	8.3	63	-1.7	1	5	248	0.00	30.190 
23:00	8.3	8.3	8.3	63	-1.7	1	4	248	0.00	30.190 
23:05	8.1	8.1	8.1	64	-1.5	1	4	248	0.00	30.185 
23:10	8.1	8.1	8.1	64	-1.5	3	11	248	0.00	30.181 
23:15	7.9	7.9	7.9	64	-1.7	1	4	248	0.00	30.180 
23:20	7.9	7.9	7.9	64	-1.7	2	6	270	0.00	30.181 
23:25	7.9	7.9	7.9	64	-1.7	1	5	270	0.00	30.182 
23:30	7.9	7.9	7.9	64	-1.7	1	4	248	0.00	30.181 
23:35	7.7	7.7	7.7	64	-1.9	1	3	270	0.00	30.181 
23:40	7.7	7.7	7.7	63	-2.2	1	5	248	0.00	30.180 
23:45	7.6	7.6	7.6	64	-2.0	1	7	270	0.00	30.181 
23:50	7.2	7.2	7.2	64	-2.4	1	4	248	0.00	30.181 
23:55	7.0	7.0	7.0	64	-2.6	1	3	270	0.00	30.182 

CoCoRaHS
IN-AL-39
A2 Web Hosting
Creative Commons License
GoDaddy
Look for:

loaded 2017-10-18 07:07:45 • last modified 2010-11-18 10:43:29
Privacy PolicyDisclaimer
• wx.awcolley.com is powered by PmWiki v.2002016 •
• all content (unless otherwise noted) © 2017 A W Colley